sensor_id;sensor_type;location;lat;lon;timestamp;P1;durP1;ratioP1;P2;durP2;ratioP2
13067;SDS011;6600;51.362;6.686;2023-01-01T00:01:11;4.47;;;2.70;;
13067;SDS011;6600;51.362;6.686;2023-01-01T00:03:38;7.53;;;3.40;;
13067;SDS011;6600;51.362;6.686;2023-01-01T00:06:11;3.80;;;2.73;;
13067;SDS011;6600;51.362;6.686;2023-01-01T00:08:37;4.30;;;2.37;;
13067;SDS011;6600;51.362;6.686;2023-01-01T00:11:04;5.07;;;2.47;;
13067;SDS011;6600;51.362;6.686;2023-01-01T00:13:31;5.90;;;2.63;;
13067;SDS011;6600;51.362;6.686;2023-01-01T00:16:11;4.97;;;3.07;;
13067;SDS011;6600;51.362;6.686;2023-01-01T00:18:39;2.50;;;2.10;;
13067;SDS011;6600;51.362;6.686;2023-01-01T00:21:05;2.67;;;2.43;;
13067;SDS011;6600;51.362;6.686;2023-01-01T00:23:34;3.17;;;2.60;;
13067;SDS011;6600;51.362;6.686;2023-01-01T00:26:00;5.27;;;3.40;;
13067;SDS011;6600;51.362;6.686;2023-01-01T00:28:26;4.17;;;3.53;;
13067;SDS011;6600;51.362;6.686;2023-01-01T00:30:51;5.57;;;2.80;;
13067;SDS011;6600;51.362;6.686;2023-01-01T00:33:17;4.53;;;2.90;;
13067;SDS011;6600;51.362;6.686;2023-01-01T00:35:42;5.37;;;3.10;;
13067;SDS011;6600;51.362;6.686;2023-01-01T00:38:08;3.07;;;2.67;;
13067;SDS011;6600;51.362;6.686;2023-01-01T00:40:33;6.37;;;3.10;;
13067;SDS011;6600;51.362;6.686;2023-01-01T00:42:58;3.73;;;2.90;;
13067;SDS011;6600;51.362;6.686;2023-01-01T00:45:24;2.87;;;2.50;;
13067;SDS011;6600;51.362;6.686;2023-01-01T00:47:50;4.50;;;2.50;;
13067;SDS011;6600;51.362;6.686;2023-01-01T00:50:16;2.47;;;2.23;;
13067;SDS011;6600;51.362;6.686;2023-01-01T00:52:42;3.97;;;1.60;;
13067;SDS011;6600;51.362;6.686;2023-01-01T00:55:08;1.97;;;1.70;;
13067;SDS011;6600;51.362;6.686;2023-01-01T00:57:34;2.10;;;1.77;;
13067;SDS011;6600;51.362;6.686;2023-01-01T00:59:59;4.37;;;1.83;;
13067;SDS011;6600;51.362;6.686;2023-01-01T01:02:24;2.50;;;1.87;;
13067;SDS011;6600;51.362;6.686;2023-01-01T01:04:50;2.50;;;1.30;;
13067;SDS011;6600;51.362;6.686;2023-01-01T01:07:15;1.77;;;1.37;;
13067;SDS011;6600;51.362;6.686;2023-01-01T01:09:40;1.97;;;1.23;;
13067;SDS011;6600;51.362;6.686;2023-01-01T01:12:06;2.43;;;1.40;;
13067;SDS011;6600;51.362;6.686;2023-01-01T01:14:31;1.23;;;1.13;;
13067;SDS011;6600;51.362;6.686;2023-01-01T01:16:56;1.70;;;1.03;;
13067;SDS011;6600;51.362;6.686;2023-01-01T01:19:22;1.17;;;1.00;;
13067;SDS011;6600;51.362;6.686;2023-01-01T01:21:58;2.00;;;1.30;;
13067;SDS011;6600;51.362;6.686;2023-01-01T01:24:23;1.10;;;0.97;;
13067;SDS011;6600;51.362;6.686;2023-01-01T01:26:49;1.57;;;0.90;;
13067;SDS011;6600;51.362;6.686;2023-01-01T01:29:14;2.07;;;1.03;;
13067;SDS011;6600;51.362;6.686;2023-01-01T01:31:40;0.60;;;0.60;;
13067;SDS011;6600;51.362;6.686;2023-01-01T01:34:05;1.53;;;0.50;;
13067;SDS011;6600;51.362;6.686;2023-01-01T01:36:30;1.77;;;0.80;;
13067;SDS011;6600;51.362;6.686;2023-01-01T01:38:56;0.60;;;0.60;;
13067;SDS011;6600;51.362;6.686;2023-01-01T01:41:22;1.50;;;0.77;;
13067;SDS011;6600;51.362;6.686;2023-01-01T01:43:51;1.07;;;0.93;;
13067;SDS011;6600;51.362;6.686;2023-01-01T01:46:40;3.43;;;0.80;;
13067;SDS011;6600;51.362;6.686;2023-01-01T01:49:16;1.90;;;0.90;;
13067;SDS011;6600;51.362;6.686;2023-01-01T01:51:45;1.93;;;0.93;;
13067;SDS011;6600;51.362;6.686;2023-01-01T01:54:14;2.07;;;0.90;;
13067;SDS011;6600;51.362;6.686;2023-01-01T01:56:46;0.80;;;0.80;;
13067;SDS011;6600;51.362;6.686;2023-01-01T01:59:18;0.70;;;0.70;;
13067;SDS011;6600;51.362;6.686;2023-01-01T02:01:45;1.60;;;0.80;;
13067;SDS011;6600;51.362;6.686;2023-01-01T02:04:11;0.77;;;0.57;;
13067;SDS011;6600;51.362;6.686;2023-01-01T02:06:37;0.60;;;0.53;;
13067;SDS011;6600;51.362;6.686;2023-01-01T02:09:04;1.20;;;0.63;;
13067;SDS011;6600;51.362;6.686;2023-01-01T02:11:31;0.60;;;0.60;;
13067;SDS011;6600;51.362;6.686;2023-01-01T02:13:56;5.83;;;0.70;;
13067;SDS011;6600;51.362;6.686;2023-01-01T02:22:15;1.23;;;0.67;;
13067;SDS011;6600;51.362;6.686;2023-01-01T02:30:28;0.57;;;0.57;;
13067;SDS011;6600;51.362;6.686;2023-01-01T02:33:03;1.40;;;1.10;;
13067;SDS011;6600;51.362;6.686;2023-01-01T02:35:37;1.03;;;0.73;;
13067;SDS011;6600;51.362;6.686;2023-01-01T02:40:36;1.77;;;0.77;;
13067;SDS011;6600;51.362;6.686;2023-01-01T02:43:06;0.60;;;0.60;;
13067;SDS011;6600;51.362;6.686;2023-01-01T02:45:32;1.30;;;0.80;;
13067;SDS011;6600;51.362;6.686;2023-01-01T02:48:34;2.33;;;0.70;;
13067;SDS011;6600;51.362;6.686;2023-01-01T02:51:10;1.13;;;0.83;;
13067;SDS011;6600;51.362;6.686;2023-01-01T02:53:44;1.60;;;0.53;;
13067;SDS011;6600;51.362;6.686;2023-01-01T02:56:27;0.40;;;0.40;;
13067;SDS011;6600;51.362;6.686;2023-01-01T03:02:17;2.43;;;0.97;;
13067;SDS011;6600;51.362;6.686;2023-01-01T03:07:56;0.50;;;0.50;;
13067;SDS011;6600;51.362;6.686;2023-01-01T03:13:28;0.43;;;0.43;;
13067;SDS011;6600;51.362;6.686;2023-01-01T03:15:58;1.63;;;0.43;;
13067;SDS011;6600;51.362;6.686;2023-01-01T03:18:34;0.90;;;0.67;;
13067;SDS011;6600;51.362;6.686;2023-01-01T03:21:05;0.63;;;0.63;;
13067;SDS011;6600;51.362;6.686;2023-01-01T03:23:33;2.63;;;0.80;;
13067;SDS011;6600;51.362;6.686;2023-01-01T03:26:02;1.93;;;0.67;;
13067;SDS011;6600;51.362;6.686;2023-01-01T03:28:34;3.40;;;0.60;;
13067;SDS011;6600;51.362;6.686;2023-01-01T03:31:03;1.77;;;0.67;;
13067;SDS011;6600;51.362;6.686;2023-01-01T03:36:23;0.73;;;0.70;;
13067;SDS011;6600;51.362;6.686;2023-01-01T03:38:59;1.07;;;0.77;;
13067;SDS011;6600;51.362;6.686;2023-01-01T03:41:46;0.60;;;0.60;;
13067;SDS011;6600;51.362;6.686;2023-01-01T03:44:37;1.93;;;1.00;;
13067;SDS011;6600;51.362;6.686;2023-01-01T03:47:11;0.40;;;0.40;;
13067;SDS011;6600;51.362;6.686;2023-01-01T03:49:37;0.50;;;0.50;;
13067;SDS011;6600;51.362;6.686;2023-01-01T03:52:14;0.70;;;0.70;;
13067;SDS011;6600;51.362;6.686;2023-01-01T04:02:13;1.00;;;0.80;;
13067;SDS011;6600;51.362;6.686;2023-01-01T04:04:44;0.60;;;0.60;;
13067;SDS011;6600;51.362;6.686;2023-01-01T04:07:11;1.73;;;0.60;;
13067;SDS011;6600;51.362;6.686;2023-01-01T04:09:36;0.77;;;0.77;;
13067;SDS011;6600;51.362;6.686;2023-01-01T04:12:05;0.63;;;0.50;;
13067;SDS011;6600;51.362;6.686;2023-01-01T04:16:57;0.53;;;0.53;;
13067;SDS011;6600;51.362;6.686;2023-01-01T04:19:22;1.77;;;0.60;;
13067;SDS011;6600;51.362;6.686;2023-01-01T04:21:48;0.47;;;0.47;;
13067;SDS011;6600;51.362;6.686;2023-01-01T04:24:13;2.03;;;0.93;;
13067;SDS011;6600;51.362;6.686;2023-01-01T04:26:39;0.50;;;0.50;;
13067;SDS011;6600;51.362;6.686;2023-01-01T04:29:04;1.90;;;0.57;;
13067;SDS011;6600;51.362;6.686;2023-01-01T04:31:29;0.67;;;0.67;;
13067;SDS011;6600;51.362;6.686;2023-01-01T04:33:55;1.00;;;0.60;;
13067;SDS011;6600;51.362;6.686;2023-01-01T04:36:20;0.50;;;0.47;;
13067;SDS011;6600;51.362;6.686;2023-01-01T04:38:45;1.47;;;0.50;;
13067;SDS011;6600;51.362;6.686;2023-01-01T04:41:11;0.43;;;0.43;;
13067;SDS011;6600;51.362;6.686;2023-01-01T04:43:36;1.33;;;0.33;;
13067;SDS011;6600;51.362;6.686;2023-01-01T04:46:02;1.13;;;0.70;;
13067;SDS011;6600;51.362;6.686;2023-01-01T04:48:29;0.67;;;0.60;;
13067;SDS011;6600;51.362;6.686;2023-01-01T04:50:58;0.63;;;0.63;;
13067;SDS011;6600;51.362;6.686;2023-01-01T04:53:30;1.00;;;0.93;;
13067;SDS011;6600;51.362;6.686;2023-01-01T04:56:03;1.00;;;0.70;;
13067;SDS011;6600;51.362;6.686;2023-01-01T04:58:29;2.37;;;1.17;;
13067;SDS011;6600;51.362;6.686;2023-01-01T05:00:55;0.87;;;0.60;;
13067;SDS011;6600;51.362;6.686;2023-01-01T05:03:20;0.77;;;0.67;;
13067;SDS011;6600;51.362;6.686;2023-01-01T05:05:46;1.50;;;0.80;;
13067;SDS011;6600;51.362;6.686;2023-01-01T05:08:12;1.97;;;0.90;;
13067;SDS011;6600;51.362;6.686;2023-01-01T05:10:37;0.40;;;0.40;;
13067;SDS011;6600;51.362;6.686;2023-01-01T05:13:05;1.13;;;0.93;;
13067;SDS011;6600;51.362;6.686;2023-01-01T05:15:33;3.00;;;0.40;;
13067;SDS011;6600;51.362;6.686;2023-01-01T05:17:59;4.87;;;0.90;;
13067;SDS011;6600;51.362;6.686;2023-01-01T05:20:25;1.77;;;1.00;;
13067;SDS011;6600;51.362;6.686;2023-01-01T05:22:50;2.53;;;0.73;;
13067;SDS011;6600;51.362;6.686;2023-01-01T05:25:15;1.03;;;0.73;;
13067;SDS011;6600;51.362;6.686;2023-01-01T05:27:40;0.77;;;0.60;;
13067;SDS011;6600;51.362;6.686;2023-01-01T05:30:06;0.53;;;0.53;;
13067;SDS011;6600;51.362;6.686;2023-01-01T05:32:32;1.23;;;0.53;;
13067;SDS011;6600;51.362;6.686;2023-01-01T05:34:57;1.80;;;0.90;;
13067;SDS011;6600;51.362;6.686;2023-01-01T05:37:22;0.93;;;0.67;;
13067;SDS011;6600;51.362;6.686;2023-01-01T05:39:48;0.60;;;0.60;;
13067;SDS011;6600;51.362;6.686;2023-01-01T05:42:13;1.33;;;0.87;;
13067;SDS011;6600;51.362;6.686;2023-01-01T05:44:39;0.70;;;0.70;;
13067;SDS011;6600;51.362;6.686;2023-01-01T05:47:05;0.50;;;0.50;;
13067;SDS011;6600;51.362;6.686;2023-01-01T05:49:30;0.93;;;0.60;;
13067;SDS011;6600;51.362;6.686;2023-01-01T05:51:55;2.33;;;0.90;;
13067;SDS011;6600;51.362;6.686;2023-01-01T05:54:21;1.37;;;0.73;;
13067;SDS011;6600;51.362;6.686;2023-01-01T05:56:46;1.13;;;0.67;;
13067;SDS011;6600;51.362;6.686;2023-01-01T05:59:11;2.53;;;0.80;;
13067;SDS011;6600;51.362;6.686;2023-01-01T06:01:36;2.20;;;0.60;;
13067;SDS011;6600;51.362;6.686;2023-01-01T06:04:02;1.13;;;0.60;;
13067;SDS011;6600;51.362;6.686;2023-01-01T06:06:29;4.43;;;0.70;;
13067;SDS011;6600;51.362;6.686;2023-01-01T06:08:58;1.10;;;0.70;;
13067;SDS011;6600;51.362;6.686;2023-01-01T06:11:25;0.70;;;0.50;;
13067;SDS011;6600;51.362;6.686;2023-01-01T06:13:55;3.13;;;1.03;;
13067;SDS011;6600;51.362;6.686;2023-01-01T06:16:23;0.50;;;0.50;;
13067;SDS011;6600;51.362;6.686;2023-01-01T06:18:48;0.70;;;0.70;;
13067;SDS011;6600;51.362;6.686;2023-01-01T06:21:15;1.67;;;0.70;;
13067;SDS011;6600;51.362;6.686;2023-01-01T06:23:42;1.17;;;0.73;;
13067;SDS011;6600;51.362;6.686;2023-01-01T06:26:09;0.93;;;0.40;;
13067;SDS011;6600;51.362;6.686;2023-01-01T06:28:34;0.80;;;0.60;;
13067;SDS011;6600;51.362;6.686;2023-01-01T06:31:00;4.30;;;0.70;;
13067;SDS011;6600;51.362;6.686;2023-01-01T06:33:26;1.33;;;0.57;;
13067;SDS011;6600;51.362;6.686;2023-01-01T06:35:52;0.67;;;0.50;;
13067;SDS011;6600;51.362;6.686;2023-01-01T06:38:17;0.60;;;0.60;;
13067;SDS011;6600;51.362;6.686;2023-01-01T06:40:43;1.90;;;0.90;;
13067;SDS011;6600;51.362;6.686;2023-01-01T06:43:08;0.93;;;0.47;;
13067;SDS011;6600;51.362;6.686;2023-01-01T06:45:33;0.80;;;0.60;;
13067;SDS011;6600;51.362;6.686;2023-01-01T06:47:58;0.50;;;0.50;;
13067;SDS011;6600;51.362;6.686;2023-01-01T06:50:24;0.60;;;0.60;;
13067;SDS011;6600;51.362;6.686;2023-01-01T06:52:49;1.80;;;0.70;;
13067;SDS011;6600;51.362;6.686;2023-01-01T06:55:14;1.90;;;1.13;;
13067;SDS011;6600;51.362;6.686;2023-01-01T06:57:40;2.10;;;0.90;;
13067;SDS011;6600;51.362;6.686;2023-01-01T07:00:05;1.23;;;0.80;;
13067;SDS011;6600;51.362;6.686;2023-01-01T07:02:31;0.97;;;0.70;;
13067;SDS011;6600;51.362;6.686;2023-01-01T07:04:56;0.67;;;0.67;;
13067;SDS011;6600;51.362;6.686;2023-01-01T07:07:22;0.60;;;0.60;;
13067;SDS011;6600;51.362;6.686;2023-01-01T07:09:47;0.70;;;0.70;;
13067;SDS011;6600;51.362;6.686;2023-01-01T07:12:12;1.77;;;0.73;;
13067;SDS011;6600;51.362;6.686;2023-01-01T07:14:38;1.07;;;0.80;;
13067;SDS011;6600;51.362;6.686;2023-01-01T07:17:03;1.23;;;0.90;;
13067;SDS011;6600;51.362;6.686;2023-01-01T07:19:28;0.53;;;0.50;;
13067;SDS011;6600;51.362;6.686;2023-01-01T07:21:54;1.47;;;0.50;;
13067;SDS011;6600;51.362;6.686;2023-01-01T07:24:19;0.87;;;0.77;;
13067;SDS011;6600;51.362;6.686;2023-01-01T07:26:45;0.60;;;0.60;;
13067;SDS011;6600;51.362;6.686;2023-01-01T07:29:11;0.97;;;0.83;;
13067;SDS011;6600;51.362;6.686;2023-01-01T07:31:40;0.53;;;0.53;;
13067;SDS011;6600;51.362;6.686;2023-01-01T07:34:08;3.37;;;0.50;;
13067;SDS011;6600;51.362;6.686;2023-01-01T07:36:37;1.17;;;0.83;;
13067;SDS011;6600;51.362;6.686;2023-01-01T07:39:03;1.33;;;1.10;;
13067;SDS011;6600;51.362;6.686;2023-01-01T07:41:28;0.97;;;0.80;;
13067;SDS011;6600;51.362;6.686;2023-01-01T07:43:53;1.50;;;0.73;;
13067;SDS011;6600;51.362;6.686;2023-01-01T07:46:19;2.07;;;0.80;;
13067;SDS011;6600;51.362;6.686;2023-01-01T07:48:44;1.27;;;0.90;;
13067;SDS011;6600;51.362;6.686;2023-01-01T07:51:09;1.10;;;0.83;;
13067;SDS011;6600;51.362;6.686;2023-01-01T07:53:35;1.20;;;0.67;;
13067;SDS011;6600;51.362;6.686;2023-01-01T07:56:00;0.70;;;0.70;;
13067;SDS011;6600;51.362;6.686;2023-01-01T07:58:26;1.07;;;0.83;;
13067;SDS011;6600;51.362;6.686;2023-01-01T08:00:51;1.83;;;1.57;;
13067;SDS011;6600;51.362;6.686;2023-01-01T08:03:17;0.77;;;0.77;;
13067;SDS011;6600;51.362;6.686;2023-01-01T08:05:42;0.97;;;0.60;;
13067;SDS011;6600;51.362;6.686;2023-01-01T08:08:08;2.03;;;0.80;;
13067;SDS011;6600;51.362;6.686;2023-01-01T08:10:34;1.07;;;0.90;;
13067;SDS011;6600;51.362;6.686;2023-01-01T08:13:00;0.97;;;0.57;;
13067;SDS011;6600;51.362;6.686;2023-01-01T08:15:26;0.50;;;0.50;;
13067;SDS011;6600;51.362;6.686;2023-01-01T08:17:58;0.97;;;0.97;;
13067;SDS011;6600;51.362;6.686;2023-01-01T08:20:25;1.67;;;0.77;;
13067;SDS011;6600;51.362;6.686;2023-01-01T08:22:51;1.00;;;0.90;;
13067;SDS011;6600;51.362;6.686;2023-01-01T08:25:16;2.13;;;0.90;;
13067;SDS011;6600;51.362;6.686;2023-01-01T08:27:42;1.57;;;0.60;;
13067;SDS011;6600;51.362;6.686;2023-01-01T08:30:08;1.17;;;0.73;;
13067;SDS011;6600;51.362;6.686;2023-01-01T08:32:35;1.10;;;0.60;;
13067;SDS011;6600;51.362;6.686;2023-01-01T08:35:00;1.63;;;0.80;;
13067;SDS011;6600;51.362;6.686;2023-01-01T08:37:25;0.50;;;0.50;;
13067;SDS011;6600;51.362;6.686;2023-01-01T08:39:51;0.70;;;0.70;;
13067;SDS011;6600;51.362;6.686;2023-01-01T08:42:17;0.57;;;0.50;;
13067;SDS011;6600;51.362;6.686;2023-01-01T08:44:42;0.97;;;0.50;;
13067;SDS011;6600;51.362;6.686;2023-01-01T08:47:21;1.73;;;0.53;;
13067;SDS011;6600;51.362;6.686;2023-01-01T08:49:48;1.17;;;1.07;;
13067;SDS011;6600;51.362;6.686;2023-01-01T08:52:14;1.07;;;0.70;;
13067;SDS011;6600;51.362;6.686;2023-01-01T08:54:39;2.53;;;0.50;;
13067;SDS011;6600;51.362;6.686;2023-01-01T08:57:05;0.60;;;0.60;;
13067;SDS011;6600;51.362;6.686;2023-01-01T08:59:31;1.03;;;0.70;;
13067;SDS011;6600;51.362;6.686;2023-01-01T09:01:56;1.00;;;0.80;;
13067;SDS011;6600;51.362;6.686;2023-01-01T09:04:21;2.93;;;0.60;;
13067;SDS011;6600;51.362;6.686;2023-01-01T09:06:47;0.90;;;0.83;;
13067;SDS011;6600;51.362;6.686;2023-01-01T09:09:12;2.83;;;0.80;;
13067;SDS011;6600;51.362;6.686;2023-01-01T09:11:37;1.33;;;1.23;;
13067;SDS011;6600;51.362;6.686;2023-01-01T09:14:03;0.70;;;0.70;;
13067;SDS011;6600;51.362;6.686;2023-01-01T09:16:28;2.50;;;0.70;;
13067;SDS011;6600;51.362;6.686;2023-01-01T09:18:53;2.23;;;1.13;;
13067;SDS011;6600;51.362;6.686;2023-01-01T09:21:18;1.27;;;0.40;;
13067;SDS011;6600;51.362;6.686;2023-01-01T09:23:44;2.00;;;1.03;;
13067;SDS011;6600;51.362;6.686;2023-01-01T09:26:09;1.43;;;1.10;;
13067;SDS011;6600;51.362;6.686;2023-01-01T09:28:35;0.20;;;0.20;;
13067;SDS011;6600;51.362;6.686;2023-01-01T09:31:01;0.60;;;0.60;;
13067;SDS011;6600;51.362;6.686;2023-01-01T09:33:29;0.50;;;0.50;;
13067;SDS011;6600;51.362;6.686;2023-01-01T09:35:58;0.53;;;0.53;;
13067;SDS011;6600;51.362;6.686;2023-01-01T09:38:35;1.50;;;0.80;;
13067;SDS011;6600;51.362;6.686;2023-01-01T09:41:03;3.70;;;0.70;;
13067;SDS011;6600;51.362;6.686;2023-01-01T09:46:42;2.53;;;0.97;;
13067;SDS011;6600;51.362;6.686;2023-01-01T09:49:15;3.10;;;0.70;;
13067;SDS011;6600;51.362;6.686;2023-01-01T09:51:55;1.53;;;0.70;;
13067;SDS011;6600;51.362;6.686;2023-01-01T09:54:28;2.10;;;1.23;;
13067;SDS011;6600;51.362;6.686;2023-01-01T09:56:58;0.77;;;0.70;;
13067;SDS011;6600;51.362;6.686;2023-01-01T09:59:25;1.97;;;0.83;;
13067;SDS011;6600;51.362;6.686;2023-01-01T10:01:53;1.57;;;1.47;;
13067;SDS011;6600;51.362;6.686;2023-01-01T10:07:36;0.67;;;0.67;;
13067;SDS011;6600;51.362;6.686;2023-01-01T10:10:31;1.87;;;0.70;;
13067;SDS011;6600;51.362;6.686;2023-01-01T10:13:27;1.33;;;0.77;;
13067;SDS011;6600;51.362;6.686;2023-01-01T10:16:11;4.67;;;1.03;;
13067;SDS011;6600;51.362;6.686;2023-01-01T10:18:43;1.73;;;0.67;;
13067;SDS011;6600;51.362;6.686;2023-01-01T10:21:18;0.93;;;0.50;;
13067;SDS011;6600;51.362;6.686;2023-01-01T10:23:51;0.97;;;0.73;;
13067;SDS011;6600;51.362;6.686;2023-01-01T10:26:41;4.07;;;0.47;;
13067;SDS011;6600;51.362;6.686;2023-01-01T10:29:18;0.53;;;0.33;;
13067;SDS011;6600;51.362;6.686;2023-01-01T10:31:50;0.67;;;0.57;;
13067;SDS011;6600;51.362;6.686;2023-01-01T10:34:21;1.43;;;1.00;;
13067;SDS011;6600;51.362;6.686;2023-01-01T10:36:52;0.97;;;0.70;;
13067;SDS011;6600;51.362;6.686;2023-01-01T10:39:22;0.60;;;0.60;;
13067;SDS011;6600;51.362;6.686;2023-01-01T10:41:48;0.70;;;0.70;;
13067;SDS011;6600;51.362;6.686;2023-01-01T10:44:15;1.00;;;0.90;;
13067;SDS011;6600;51.362;6.686;2023-01-01T10:46:49;1.70;;;0.70;;
13067;SDS011;6600;51.362;6.686;2023-01-01T10:49:20;1.17;;;0.63;;
13067;SDS011;6600;51.362;6.686;2023-01-01T10:51:46;1.77;;;1.30;;
13067;SDS011;6600;51.362;6.686;2023-01-01T10:54:35;1.30;;;0.80;;
13067;SDS011;6600;51.362;6.686;2023-01-01T10:59:38;1.40;;;0.70;;
13067;SDS011;6600;51.362;6.686;2023-01-01T11:02:13;1.10;;;1.00;;
13067;SDS011;6600;51.362;6.686;2023-01-01T11:04:39;2.83;;;0.80;;
13067;SDS011;6600;51.362;6.686;2023-01-01T11:07:05;2.77;;;0.80;;
13067;SDS011;6600;51.362;6.686;2023-01-01T11:09:31;1.63;;;1.00;;
13067;SDS011;6600;51.362;6.686;2023-01-01T11:11:57;1.40;;;0.50;;
13067;SDS011;6600;51.362;6.686;2023-01-01T11:14:25;2.53;;;0.80;;
13067;SDS011;6600;51.362;6.686;2023-01-01T11:16:53;0.80;;;0.80;;
13067;SDS011;6600;51.362;6.686;2023-01-01T11:19:21;1.40;;;0.90;;
13067;SDS011;6600;51.362;6.686;2023-01-01T11:21:51;0.93;;;0.70;;
13067;SDS011;6600;51.362;6.686;2023-01-01T11:24:21;0.97;;;0.60;;
13067;SDS011;6600;51.362;6.686;2023-01-01T11:26:49;5.07;;;0.80;;
13067;SDS011;6600;51.362;6.686;2023-01-01T11:31:40;3.07;;;1.27;;
13067;SDS011;6600;51.362;6.686;2023-01-01T11:34:28;2.07;;;0.90;;
13067;SDS011;6600;51.362;6.686;2023-01-01T11:39:40;1.87;;;0.60;;
13067;SDS011;6600;51.362;6.686;2023-01-01T11:42:07;1.80;;;0.60;;
13067;SDS011;6600;51.362;6.686;2023-01-01T11:44:41;0.70;;;0.70;;
13067;SDS011;6600;51.362;6.686;2023-01-01T11:47:22;1.10;;;0.73;;
13067;SDS011;6600;51.362;6.686;2023-01-01T11:55:10;3.27;;;0.93;;
13067;SDS011;6600;51.362;6.686;2023-01-01T11:57:37;2.10;;;0.87;;
13067;SDS011;6600;51.362;6.686;2023-01-01T12:00:11;4.77;;;1.00;;
13067;SDS011;6600;51.362;6.686;2023-01-01T12:02:41;0.90;;;0.50;;
13067;SDS011;6600;51.362;6.686;2023-01-01T12:05:16;1.50;;;0.70;;
13067;SDS011;6600;51.362;6.686;2023-01-01T12:07:49;1.17;;;0.67;;
13067;SDS011;6600;51.362;6.686;2023-01-01T12:12:59;1.07;;;0.70;;
13067;SDS011;6600;51.362;6.686;2023-01-01T12:15:35;1.90;;;1.00;;
13067;SDS011;6600;51.362;6.686;2023-01-01T12:18:09;4.67;;;1.17;;
13067;SDS011;6600;51.362;6.686;2023-01-01T12:20:40;1.00;;;0.90;;
13067;SDS011;6600;51.362;6.686;2023-01-01T12:23:12;1.73;;;0.70;;
13067;SDS011;6600;51.362;6.686;2023-01-01T12:25:42;3.70;;;1.00;;
13067;SDS011;6600;51.362;6.686;2023-01-01T12:28:24;0.63;;;0.63;;
13067;SDS011;6600;51.362;6.686;2023-01-01T12:31:10;0.70;;;0.70;;
13067;SDS011;6600;51.362;6.686;2023-01-01T12:34:06;1.07;;;0.50;;
13067;SDS011;6600;51.362;6.686;2023-01-01T12:42:14;1.67;;;0.90;;
13067;SDS011;6600;51.362;6.686;2023-01-01T12:45:14;1.40;;;0.43;;
13067;SDS011;6600;51.362;6.686;2023-01-01T12:53:25;2.47;;;0.80;;
13067;SDS011;6600;51.362;6.686;2023-01-01T12:56:03;0.60;;;0.47;;
13067;SDS011;6600;51.362;6.686;2023-01-01T12:58:47;1.17;;;0.90;;
13067;SDS011;6600;51.362;6.686;2023-01-01T13:01:33;1.10;;;0.73;;
13067;SDS011;6600;51.362;6.686;2023-01-01T13:04:01;2.07;;;0.67;;
13067;SDS011;6600;51.362;6.686;2023-01-01T13:09:10;0.70;;;0.70;;
13067;SDS011;6600;51.362;6.686;2023-01-01T13:11:42;1.93;;;0.97;;
13067;SDS011;6600;51.362;6.686;2023-01-01T13:14:09;0.80;;;0.80;;
13067;SDS011;6600;51.362;6.686;2023-01-01T13:16:38;1.13;;;1.03;;
13067;SDS011;6600;51.362;6.686;2023-01-01T13:19:05;1.23;;;0.80;;
13067;SDS011;6600;51.362;6.686;2023-01-01T13:21:47;0.47;;;0.37;;
13067;SDS011;6600;51.362;6.686;2023-01-01T13:24:19;1.13;;;0.70;;
13067;SDS011;6600;51.362;6.686;2023-01-01T13:26:47;1.67;;;0.83;;
13067;SDS011;6600;51.362;6.686;2023-01-01T13:45:31;2.27;;;0.70;;
13067;SDS011;6600;51.362;6.686;2023-01-01T14:05:33;1.50;;;0.80;;
13067;SDS011;6600;51.362;6.686;2023-01-01T14:07:40;1.53;;;0.40;;
13067;SDS011;6600;51.362;6.686;2023-01-01T14:12:47;1.37;;;0.87;;
13067;SDS011;6600;51.362;6.686;2023-01-01T14:15:15;2.53;;;1.20;;
13067;SDS011;6600;51.362;6.686;2023-01-01T14:17:41;2.20;;;1.30;;
13067;SDS011;6600;51.362;6.686;2023-01-01T14:20:12;1.93;;;1.20;;
13067;SDS011;6600;51.362;6.686;2023-01-01T14:22:42;1.63;;;0.90;;
13067;SDS011;6600;51.362;6.686;2023-01-01T14:25:13;3.57;;;1.33;;
13067;SDS011;6600;51.362;6.686;2023-01-01T14:27:41;1.90;;;1.60;;
13067;SDS011;6600;51.362;6.686;2023-01-01T14:30:13;1.60;;;1.10;;
13067;SDS011;6600;51.362;6.686;2023-01-01T14:32:40;4.40;;;1.07;;
13067;SDS011;6600;51.362;6.686;2023-01-01T14:35:13;0.60;;;0.60;;
13067;SDS011;6600;51.362;6.686;2023-01-01T14:37:40;1.10;;;1.00;;
13067;SDS011;6600;51.362;6.686;2023-01-01T14:42:38;0.83;;;0.77;;
13067;SDS011;6600;51.362;6.686;2023-01-01T14:45:04;1.63;;;0.83;;
13067;SDS011;6600;51.362;6.686;2023-01-01T14:47:33;3.03;;;1.30;;
13067;SDS011;6600;51.362;6.686;2023-01-01T14:50:10;3.70;;;1.03;;
13067;SDS011;6600;51.362;6.686;2023-01-01T14:52:49;2.10;;;1.40;;
13067;SDS011;6600;51.362;6.686;2023-01-01T14:55:20;1.70;;;1.40;;
13067;SDS011;6600;51.362;6.686;2023-01-01T14:57:46;1.70;;;0.93;;
13067;SDS011;6600;51.362;6.686;2023-01-01T15:00:21;1.03;;;1.00;;
13067;SDS011;6600;51.362;6.686;2023-01-01T15:02:51;3.10;;;1.20;;
13067;SDS011;6600;51.362;6.686;2023-01-01T15:05:25;3.03;;;1.30;;
13067;SDS011;6600;51.362;6.686;2023-01-01T15:07:56;3.30;;;1.17;;
13067;SDS011;6600;51.362;6.686;2023-01-01T15:10:23;3.10;;;1.40;;
13067;SDS011;6600;51.362;6.686;2023-01-01T15:12:50;1.90;;;1.47;;
13067;SDS011;6600;51.362;6.686;2023-01-01T15:15:32;7.60;;;1.50;;
13067;SDS011;6600;51.362;6.686;2023-01-01T15:17:57;1.90;;;1.33;;
13067;SDS011;6600;51.362;6.686;2023-01-01T15:20:23;4.70;;;1.90;;
13067;SDS011;6600;51.362;6.686;2023-01-01T15:22:49;3.17;;;1.90;;
13067;SDS011;6600;51.362;6.686;2023-01-01T15:25:16;1.73;;;1.47;;
13067;SDS011;6600;51.362;6.686;2023-01-01T15:27:47;6.33;;;2.10;;
13067;SDS011;6600;51.362;6.686;2023-01-01T15:32:53;1.60;;;1.00;;
13067;SDS011;6600;51.362;6.686;2023-01-01T15:35:30;2.63;;;0.73;;
13067;SDS011;6600;51.362;6.686;2023-01-01T15:37:58;0.93;;;0.80;;
13067;SDS011;6600;51.362;6.686;2023-01-01T15:45:26;1.03;;;1.00;;
13067;SDS011;6600;51.362;6.686;2023-01-01T15:47:57;1.40;;;1.07;;
13067;SDS011;6600;51.362;6.686;2023-01-01T15:56:01;1.63;;;1.20;;
13067;SDS011;6600;51.362;6.686;2023-01-01T15:58:40;1.80;;;0.90;;
13067;SDS011;6600;51.362;6.686;2023-01-01T16:01:13;3.10;;;1.57;;
13067;SDS011;6600;51.362;6.686;2023-01-01T16:03:44;3.30;;;1.20;;
13067;SDS011;6600;51.362;6.686;2023-01-01T16:06:15;1.47;;;1.37;;
13067;SDS011;6600;51.362;6.686;2023-01-01T16:08:42;5.13;;;1.37;;
13067;SDS011;6600;51.362;6.686;2023-01-01T16:11:07;0.60;;;0.60;;
13067;SDS011;6600;51.362;6.686;2023-01-01T16:13:33;0.70;;;0.70;;
13067;SDS011;6600;51.362;6.686;2023-01-01T16:15:59;1.43;;;1.20;;
13067;SDS011;6600;51.362;6.686;2023-01-01T16:21:01;3.20;;;2.00;;
13067;SDS011;6600;51.362;6.686;2023-01-01T16:23:28;3.40;;;1.10;;
13067;SDS011;6600;51.362;6.686;2023-01-01T16:25:54;1.27;;;1.17;;
13067;SDS011;6600;51.362;6.686;2023-01-01T16:28:19;1.70;;;1.20;;
13067;SDS011;6600;51.362;6.686;2023-01-01T16:30:44;1.13;;;0.70;;
13067;SDS011;6600;51.362;6.686;2023-01-01T16:33:14;0.50;;;0.50;;
13067;SDS011;6600;51.362;6.686;2023-01-01T16:35:41;0.97;;;0.80;;
13067;SDS011;6600;51.362;6.686;2023-01-01T16:38:07;0.70;;;0.70;;
13067;SDS011;6600;51.362;6.686;2023-01-01T16:40:32;3.80;;;0.80;;
13067;SDS011;6600;51.362;6.686;2023-01-01T16:42:58;1.60;;;1.40;;
13067;SDS011;6600;51.362;6.686;2023-01-01T16:45:23;2.63;;;1.23;;
13067;SDS011;6600;51.362;6.686;2023-01-01T16:47:48;1.27;;;0.77;;
13067;SDS011;6600;51.362;6.686;2023-01-01T16:50:14;1.23;;;1.20;;
13067;SDS011;6600;51.362;6.686;2023-01-01T16:52:39;0.50;;;0.50;;
13067;SDS011;6600;51.362;6.686;2023-01-01T16:55:05;2.23;;;1.07;;
13067;SDS011;6600;51.362;6.686;2023-01-01T16:57:30;2.37;;;0.93;;
13067;SDS011;6600;51.362;6.686;2023-01-01T16:59:59;1.37;;;1.27;;
13067;SDS011;6600;51.362;6.686;2023-01-01T17:02:24;4.87;;;1.67;;
13067;SDS011;6600;51.362;6.686;2023-01-01T17:04:50;1.07;;;0.90;;
13067;SDS011;6600;51.362;6.686;2023-01-01T17:07:15;1.10;;;1.00;;
13067;SDS011;6600;51.362;6.686;2023-01-01T17:09:41;1.73;;;1.30;;
13067;SDS011;6600;51.362;6.686;2023-01-01T17:12:06;0.50;;;0.50;;
13067;SDS011;6600;51.362;6.686;2023-01-01T17:14:32;0.77;;;0.50;;
13067;SDS011;6600;51.362;6.686;2023-01-01T17:16:57;1.03;;;0.83;;